Time;durP1;ratioP1;P1;durP2;ratioP2;P2;SDS_P1;SDS_P2;PMS_P1;PMS_P2;Temp;Humidity;BMP_temperature;BMP_pressure;BME280_temperature;BME280_humidity;BME280_pressure;Samples;Min_cycle;Max_cycle;Signal;HPM_P1;HPM_P2
2021/07/14 00:02:21;;;;;;;1.80;1.30;;;14.50;49.10;;;;;;5012298;28;20203;-69
2021/07/14 00:04:47;;;;;;;1.90;1.40;;;14.60;49.50;;;;;;5027877;28;20183;-69
2021/07/14 00:07:12;;;;;;;1.80;1.10;;;14.50;48.90;;;;;;5012430;28;20190;-70
2021/07/14 00:09:38;;;;;;;8.10;1.27;;;14.50;48.80;;;;;;5012044;28;20211;-69
2021/07/14 00:12:07;;;;;;;2.77;1.87;;;14.50;48.70;;;;;;5012237;28;20271;-70
2021/07/14 00:17:22;;;;;;;1.83;1.33;;;14.40;50.30;;;;;;5012444;28;20411;-70
2021/07/14 00:22:35;;;;;;;13.33;2.00;;;14.30;50.20;;;;;;5012309;28;20428;-70
2021/07/14 00:25:02;;;;;;;3.33;1.33;;;14.20;50.10;;;;;;5027058;28;20425;-69
2021/07/14 00:27:28;;;;;;;1.57;1.17;;;14.20;50.00;;;;;;5012041;28;20777;-69
2021/07/14 00:32:20;;;;;;;3.77;1.67;;;14.30;50.90;;;;;;5012099;28;20200;-69
2021/07/14 00:34:45;;;;;;;2.40;1.53;;;14.30;50.20;;;;;;5027059;28;20227;-70
2021/07/14 00:37:12;;;;;;;2.27;1.43;;;14.30;50.70;;;;;;5011801;28;20417;-70
2021/07/14 00:39:37;;;;;;;2.47;1.50;;;14.20;50.10;;;;;;5026563;28;20449;-70
2021/07/14 00:42:05;;;;;;;2.13;1.73;;;14.20;50.10;;;;;;5011635;28;20478;-71
2021/07/14 00:44:31;;;;;;;6.63;1.90;;;14.20;49.80;;;;;;5011715;28;20907;-70
2021/07/14 00:46:59;;;;;;;8.30;2.37;;;14.10;50.00;;;;;;5011758;28;20464;-69
2021/07/14 00:49:25;;;;;;;3.07;1.77;;;14.10;50.00;;;;;;5011345;28;20288;-70
2021/07/14 00:51:50;;;;;;;7.93;2.10;;;14.10;50.00;;;;;;5011438;28;20561;-69
2021/07/14 00:54:16;;;;;;;3.30;1.90;;;14.00;50.10;;;;;;5011618;28;20172;-70
2021/07/14 00:56:41;;;;;;;3.30;1.50;;;14.00;50.30;;;;;;5011729;28;20166;-70
2021/07/14 00:59:07;;;;;;;3.13;1.70;;;13.90;50.70;;;;;;5011359;28;20180;-70
2021/07/14 01:01:34;;;;;;;1.40;1.03;;;13.90;49.90;;;;;;5011500;28;20227;-70
2021/07/14 01:04:28;;;;;;;4.30;1.40;;;13.80;50.40;;;;;;5011499;28;20241;-70
2021/07/14 01:07:03;;;;;;;2.80;1.67;;;13.70;51.50;;;;;;5024163;28;20429;-69
2021/07/14 01:09:42;;;;;;;2.20;1.80;;;13.60;52.10;;;;;;5011233;28;20509;-69
2021/07/14 01:12:38;;;;;;;6.17;1.60;;;13.60;52.10;;;;;;5011324;28;20430;-70
2021/07/14 01:15:11;;;;;;;2.70;1.63;;;13.50;52.30;;;;;;5011305;28;20527;-68
2021/07/14 01:17:46;;;;;;;2.17;1.53;;;13.50;52.80;;;;;;5011436;28;20771;-68
2021/07/14 01:20:14;;;;;;;4.87;2.10;;;13.40;53.30;;;;;;5011106;28;20410;-70
2021/07/14 01:22:52;;;;;;;2.57;2.00;;;13.40;54.40;;;;;;5011153;28;20690;-71
2021/07/14 01:25:49;;;;;;;2.53;2.10;;;13.50;54.50;;;;;;5011690;28;20502;-70
2021/07/14 01:28:16;;;;;;;2.83;1.50;;;13.60;55.20;;;;;;4983012;28;20461;-70
2021/07/14 01:30:43;;;;;;;2.90;1.50;;;13.70;54.60;;;;;;5010946;28;20524;-71
2021/07/14 01:33:10;;;;;;;2.80;1.93;;;13.80;54.80;;;;;;5026348;28;20421;-69
2021/07/14 01:35:41;;;;;;;2.53;2.10;;;13.90;54.90;;;;;;5011091;28;20931;-70
2021/07/14 01:38:08;;;;;;;1.87;1.57;;;14.00;52.80;;;;;;5011048;28;20888;-70
2021/07/14 01:40:35;;;;;;;2.33;1.67;;;14.00;52.10;;;;;;5010739;28;20805;-69
2021/07/14 01:43:03;;;;;;;2.73;2.53;;;14.00;51.80;;;;;;5014161;28;20844;-70
2021/07/14 01:45:32;;;;;;;2.47;1.97;;;14.10;51.50;;;;;;5015093;28;20772;-70
2021/07/14 01:48:00;;;;;;;4.53;2.17;;;14.10;51.00;;;;;;5015327;28;20413;-70
2021/07/14 01:50:28;;;;;;;2.03;1.50;;;14.10;50.00;;;;;;5029547;28;20455;-70
2021/07/14 01:52:54;;;;;;;1.50;1.27;;;14.10;49.30;;;;;;5029982;28;20523;-69
2021/07/14 01:55:22;;;;;;;2.47;2.07;;;14.10;49.10;;;;;;5030054;28;20932;-71
2021/07/14 01:57:54;;;;;;;2.40;1.60;;;14.00;49.50;;;;;;5015274;28;20407;-70
2021/07/14 02:00:20;;;;;;;2.33;1.90;;;14.00;51.00;;;;;;5030103;28;20750;-69
2021/07/14 02:03:41;;;;;;;4.40;1.70;;;14.00;50.60;;;;;;5014724;28;20444;-70
2021/07/14 02:05:38;;;;;;;4.30;1.80;;;14.00;50.00;;;;;;5009133;28;20295;-70
2021/07/14 02:08:05;;;;;;;3.20;1.30;;;13.90;50.20;;;;;;5014848;28;20422;-70
2021/07/14 02:10:32;;;;;;;1.73;1.50;;;13.80;49.80;;;;;;5014327;28;20468;-70
2021/07/14 02:12:59;;;;;;;4.07;2.03;;;13.80;50.30;;;;;;5014548;28;20776;-70
2021/07/14 02:15:27;;;;;;;2.47;1.17;;;13.80;49.80;;;;;;5015287;28;20453;-71
2021/07/14 02:18:08;;;;;;;4.33;1.97;;;13.80;49.80;;;;;;5014496;28;20413;-70
2021/07/14 02:20:34;;;;;;;2.30;1.83;;;13.80;49.80;;;;;;5014469;28;20401;-70
2021/07/14 02:23:04;;;;;;;4.00;1.73;;;13.80;50.40;;;;;;5014394;28;20841;-70
2021/07/14 02:25:29;;;;;;;2.70;1.87;;;13.70;50.40;;;;;;5014478;28;20220;-69
2021/07/14 02:27:56;;;;;;;3.90;2.07;;;13.70;49.90;;;;;;5014267;28;20418;-70
2021/07/14 02:30:23;;;;;;;2.10;1.73;;;13.70;50.30;;;;;;5013962;28;20218;-70
2021/07/14 02:32:58;;;;;;;2.80;2.20;;;13.80;50.30;;;;;;5014208;28;20459;-70
2021/07/14 02:35:25;;;;;;;2.83;1.93;;;13.80;49.80;;;;;;5014069;28;20418;-70
2021/07/14 02:37:59;;;;;;;9.93;1.93;;;13.90;49.90;;;;;;5029380;28;20443;-69
2021/07/14 02:40:30;;;;;;;2.87;1.90;;;13.90;49.10;;;;;;5028958;28;20481;-69
2021/07/14 02:42:57;;;;;;;3.73;1.97;;;;;;;;;;5014206;28;20491;-71
2021/07/14 02:45:24;;;;;;;2.07;1.87;;;14.00;85.10;;;;;;5029163;28;20419;-69
2021/07/14 02:47:50;;;;;;;5.83;1.97;;;14.10;87.50;;;;;;5013984;28;20415;-69
2021/07/14 02:50:20;;;;;;;1.90;1.40;;;14.10;87.50;;;;;;5028824;28;20630;-70
2021/07/14 02:52:48;;;;;;;1.80;1.43;;;14.20;87.00;;;;;;5028040;28;20558;-71
2021/07/14 02:55:18;;;;;;;3.73;1.80;;;14.30;87.20;;;;;;5013401;28;21010;-70
2021/07/14 02:57:45;;;;;;;5.23;2.20;;;14.30;88.00;;;;;;5014043;28;20410;-70
2021/07/14 03:00:12;;;;;;;2.40;1.40;;;;;;;;;;5013451;28;20421;-69
2021/07/14 03:02:39;;;;;;;3.17;1.90;;;;;;;;;;5013503;28;20521;-71
2021/07/14 03:05:06;;;;;;;2.33;1.93;;;;;;;;;;5013507;28;20505;-70
2021/07/14 03:07:32;;;;;;;2.53;1.90;;;;;;;;;;5013521;28;20498;-69
2021/07/14 03:09:59;;;;;;;2.07;1.80;;;;;;;;;;5028456;28;20712;-69
2021/07/14 03:12:26;;;;;;;5.83;2.50;;;;;;;;;;5028616;28;20520;-70
2021/07/14 03:14:54;;;;;;;2.87;2.20;;;;;;;;;;5013703;28;20776;-70
2021/07/14 03:17:20;;;;;;;3.10;1.97;;;;;;;;;;5013650;28;21014;-69
2021/07/14 03:19:48;;;;;;;3.10;1.90;;;;;;;;;;5013143;28;20501;-70
2021/07/14 03:22:14;;;;;;;2.80;1.97;;;;;;;;;;5013308;28;20922;-70
2021/07/14 03:24:41;;;;;;;3.50;2.50;;;;;;;;;;5013219;28;20415;-70
2021/07/14 03:27:08;;;;;;;3.53;2.43;;;;;;;;;;5013170;28;20414;-69
2021/07/14 03:29:36;;;;;;;3.37;1.70;;;;;;;;;;5012757;28;20462;-69
2021/07/14 03:32:03;;;;;;;3.03;1.70;;;;;;;;;;5028135;28;20951;-70
2021/07/14 03:34:29;;;;;;;2.90;1.43;;;;;;;;;;5028196;28;20423;-69
2021/07/14 03:36:55;;;;;;;2.53;1.93;;;;;;;;;;5013037;28;20415;-70
2021/07/14 03:39:22;;;;;;;2.93;2.00;;;;;;;;;;5012652;28;20419;-69
2021/07/14 03:41:49;;;;;;;3.83;1.70;;;;;;;;;;5028018;28;20438;-70
2021/07/14 03:44:17;;;;;;;2.50;1.67;;;;;;;;;;5012930;28;20912;-69
2021/07/14 03:46:44;;;;;;;3.80;2.10;;;;;;;;;;5027920;28;20842;-70
2021/07/14 03:49:12;;;;;;;3.07;2.40;;;;;;;;;;5012347;28;20491;-69
2021/07/14 03:51:37;;;;;;;2.57;1.67;;;;;;;;;;5012591;28;20848;-70
2021/07/14 03:54:04;;;;;;;2.70;1.87;;;;;;;;;;5012823;28;20505;-70
2021/07/14 03:56:30;;;;;;;3.50;2.03;;;;;;;;;;5012671;28;20418;-69
2021/07/14 03:58:56;;;;;;;6.93;2.23;;;;;;;;;;5027448;28;20424;-69
2021/07/14 04:01:22;;;;;;;3.63;2.10;;;;;;;;;;5012742;28;20444;-70
2021/07/14 04:03:48;;;;;;;7.93;1.97;;;;;;;;;;5012362;28;20503;-69
2021/07/14 04:06:15;;;;;;;2.43;1.90;;;;;;;;;;5027301;28;20519;-70
2021/07/14 04:08:44;;;;;;;8.63;1.97;;;;;;;;;;5027463;28;20422;-69
2021/07/14 04:11:11;;;;;;;2.00;1.60;;;;;;;;;;5012189;28;20712;-70
2021/07/14 04:13:37;;;;;;;3.60;2.30;;;;;;;;;;5012265;28;20402;-69
2021/07/14 04:16:04;;;;;;;2.53;2.13;;;;;;;;;;5012211;28;20415;-70
2021/07/14 04:18:30;;;;;;;2.60;1.90;;;;;;;;;;5012370;28;20496;-72
2021/07/14 04:20:56;;;;;;;3.97;2.13;;;;;;;;;;5011952;28;20876;-70
2021/07/14 04:23:22;;;;;;;2.30;1.60;;;;;;;;;;5012153;28;20443;-70
2021/07/14 04:25:48;;;;;;;2.93;2.27;;;;;;;;;;5012032;28;20781;-71
2021/07/14 04:28:14;;;;;;;3.60;2.27;;;;;;;;;;5012014;28;20411;-69
2021/07/14 04:30:39;;;;;;;4.47;3.23;;;;;;;;;;5026795;28;20625;-69
2021/07/14 04:33:05;;;;;;;3.23;1.90;;;;;;;;;;5012357;28;20943;-69
2021/07/14 04:35:31;;;;;;;3.30;2.90;;;;;;;;;;5012022;28;20775;-69
2021/07/14 04:37:57;;;;;;;3.30;2.37;;;;;;;;;;5011858;28;20548;-69
2021/07/14 04:40:23;;;;;;;4.00;1.90;;;;;;;;;;5011603;28;20414;-70
2021/07/14 04:42:50;;;;;;;3.20;2.30;;;;;;;;;;5026834;28;20492;-69
2021/07/14 04:45:16;;;;;;;2.40;2.20;;;;;;;;;;5011758;28;20987;-70
2021/07/14 04:47:42;;;;;;;3.40;2.37;;;;;;;;;;5011629;28;20453;-70
2021/07/14 04:50:08;;;;;;;3.43;1.50;;;;;;;;;;5011446;28;20466;-70
2021/07/14 04:52:34;;;;;;;4.23;2.63;;;;;;;;;;5011591;28;20454;-71
2021/07/14 04:55:00;;;;;;;5.30;2.10;;;;;;;;;;5012996;28;20780;-71
2021/07/14 04:57:26;;;;;;;3.80;2.50;;;;;;;;;;5011923;28;20882;-69
2021/07/14 04:59:52;;;;;;;3.47;3.10;;;;;;;;;;5011334;28;20473;-69
2021/07/14 05:02:18;;;;;;;2.67;1.70;;;;;;;;;;5011351;28;20781;-70
2021/07/14 05:04:44;;;;;;;3.17;1.90;;;;;;;;;;5011357;28;20935;-69
2021/07/14 05:07:11;;;;;;;4.10;2.17;;;;;;;;;;5011403;28;20411;-70
2021/07/14 05:09:37;;;;;;;3.87;2.37;;;;;;;;;;5011173;28;20461;-69
2021/07/14 05:12:03;;;;;;;2.53;2.30;;;;;;;;;;5011064;28;21000;-69
2021/07/14 05:14:29;;;;;;;2.80;2.20;;;;;;;;;;5011107;28;20985;-70
2021/07/14 05:16:55;;;;;;;4.20;2.70;;;;;;;;;;5010273;28;20406;-69
2021/07/14 05:19:21;;;;;;;2.10;1.90;;;;;;;;;;5010925;28;20418;-70
2021/07/14 05:21:47;;;;;;;4.67;2.73;;;;;;;;;;5011031;28;20521;-70
2021/07/14 05:24:13;;;;;;;2.33;1.80;;;;;;;;;;5011038;28;20434;-69
2021/07/14 05:26:39;;;;;;;3.10;2.20;;;;;;;;;;5026561;28;20817;-70
2021/07/14 05:29:06;;;;;;;2.80;2.27;;;;;;;;;;5011035;28;20623;-70
2021/07/14 05:31:32;;;;;;;5.53;2.30;;;;;;;;;;5011264;28;21063;-70
2021/07/14 05:33:58;;;;;;;4.70;2.70;;;;;;;;;;5015607;28;20456;-71
2021/07/14 05:36:24;;;;;;;3.70;2.17;;;;;;;;;;5016155;28;20465;-71
2021/07/14 05:38:49;;;;;;;2.43;2.07;;;;;;;;;;5030846;28;20419;-71
2021/07/14 05:41:15;;;;;;;3.63;2.30;;;;;;;;;;5030217;28;20435;-71
2021/07/14 05:43:41;;;;;;;3.13;2.63;;;;;;;;;;5016150;28;20963;-70
2021/07/14 05:46:07;;;;;;;4.47;2.80;;;;;;;;;;5015634;28;20443;-70
2021/07/14 05:48:33;;;;;;;4.03;2.90;;;;;;;;;;5015745;28;20418;-70
2021/07/14 05:50:59;;;;;;;4.90;2.23;;;;;;;;;;5014816;28;20442;-70
2021/07/14 05:53:26;;;;;;;6.07;2.10;;;;;;;;;;5011965;28;20410;-70
2021/07/14 05:55:52;;;;;;;3.07;2.43;;;;;;;;;;5010933;28;20434;-71
2021/07/14 05:58:18;;;;;;;2.57;1.90;;;16.00;82.80;;;;;;5010920;28;20471;-70
2021/07/14 06:00:43;;;;;;;5.60;3.20;;;16.00;37.70;;;;;;5010695;28;20457;-70
2021/07/14 06:03:09;;;;;;;2.40;2.10;;;16.10;38.60;;;;;;5011128;28;20418;-69
2021/07/14 06:05:35;;;;;;;3.70;2.27;;;16.10;39.70;;;;;;5011142;28;20250;-70
2021/07/14 06:08:02;;;;;;;2.93;2.03;;;16.10;39.80;;;;;;5010908;28;20191;-70
2021/07/14 06:10:28;;;;;;;3.50;2.20;;;16.20;39.60;;;;;;5010924;28;20457;-70
2021/07/14 06:12:58;;;;;;;5.87;2.30;;;16.20;37.30;;;;;;5025714;28;20439;-70
2021/07/14 06:15:24;;;;;;;4.80;2.30;;;16.30;36.90;;;;;;5010697;28;20419;-70
2021/07/14 06:17:50;;;;;;;4.20;2.20;;;16.30;36.70;;;;;;5010823;28;20419;-71
2021/07/14 06:20:16;;;;;;;4.00;2.63;;;16.30;37.40;;;;;;5010459;28;20430;-71
2021/07/14 06:22:42;;;;;;;5.30;2.43;;;16.30;38.60;;;;;;5010789;28;20806;-69
2021/07/14 06:25:09;;;;;;;4.57;2.13;;;16.30;37.90;;;;;;5010754;28;20196;-70
2021/07/14 06:27:35;;;;;;;6.20;3.10;;;16.30;37.80;;;;;;5011387;28;20184;-70
2021/07/14 06:30:05;;;;;;;3.70;2.67;;;16.20;37.80;;;;;;5014184;28;20462;-71
2021/07/14 06:32:32;;;;;;;3.13;2.60;;;16.20;37.70;;;;;;5014491;28;20427;-70
2021/07/14 06:34:58;;;;;;;3.40;2.73;;;16.30;38.50;;;;;;5014547;28;20421;-70
2021/07/14 06:37:24;;;;;;;3.10;2.40;;;16.30;38.30;;;;;;5014314;28;20419;-71
2021/07/14 06:39:49;;;;;;;5.20;3.30;;;16.30;38.30;;;;;;5013913;28;20836;-70
2021/07/14 06:42:15;;;;;;;3.53;2.27;;;16.30;38.70;;;;;;5029188;28;20625;-70
2021/07/14 06:44:41;;;;;;;3.60;2.57;;;16.30;38.70;;;;;;5029272;28;20621;-70
2021/07/14 06:47:06;;;;;;;2.70;1.90;;;16.30;38.80;;;;;;5014141;28;20184;-70
2021/07/14 06:49:32;;;;;;;3.07;1.90;;;16.30;39.10;;;;;;5013554;28;20250;-70
2021/07/14 06:51:58;;;;;;;4.00;2.50;;;16.40;39.30;;;;;;5013834;28;20634;-70
2021/07/14 06:54:23;;;;;;;3.20;2.37;;;16.50;40.30;;;;;;5030690;28;20187;-71
2021/07/14 06:56:49;;;;;;;3.87;2.57;;;16.60;38.50;;;;;;5029417;28;20797;-70
2021/07/14 06:59:14;;;;;;;2.80;2.20;;;16.80;38.50;;;;;;5028710;28;20540;-70
2021/07/14 07:01:40;;;;;;;3.27;2.20;;;16.90;38.40;;;;;;5028782;28;20570;-71
2021/07/14 07:04:05;;;;;;;3.63;2.70;;;17.10;37.30;;;;;;5013712;28;20183;-70
2021/07/14 07:06:31;;;;;;;13.07;3.13;;;17.20;36.50;;;;;;5013734;28;20167;-71
2021/07/14 07:08:56;;;;;;;3.13;2.30;;;17.30;35.70;;;;;;5013609;28;20208;-70
2021/07/14 07:11:22;;;;;;;4.07;2.30;;;17.50;35.90;;;;;;5013444;28;20280;-70
2021/07/14 07:13:47;;;;;;;4.03;2.47;;;17.60;35.00;;;;;;5013424;28;20180;-71
2021/07/14 07:16:13;;;;;;;5.93;2.70;;;17.70;34.10;;;;;;5013433;28;20175;-71
2021/07/14 07:18:38;;;;;;;6.53;2.73;;;17.90;34.80;;;;;;5013522;28;20747;-72
2021/07/14 07:21:07;;;;;;;3.80;2.57;;;17.90;32.70;;;;;;5013101;28;20600;-71
2021/07/14 07:23:33;;;;;;;4.80;2.63;;;18.10;32.90;;;;;;5028508;28;20289;-70
2021/07/14 07:25:59;;;;;;;3.00;2.70;;;18.30;34.10;;;;;;5028340;28;20423;-70
2021/07/14 07:28:29;;;;;;;12.60;3.53;;;18.40;32.80;;;;;;5013196;28;20407;-71
2021/07/14 07:30:55;;;;;;;3.80;3.20;;;18.50;31.10;;;;;;5012986;28;20207;-70
2021/07/14 07:33:21;;;;;;;4.10;2.90;;;18.40;31.30;;;;;;5013127;28;20418;-70
2021/07/14 07:35:46;;;;;;;3.20;2.57;;;18.20;31.80;;;;;;5028284;28;20191;-70
2021/07/14 07:38:12;;;;;;;7.70;3.07;;;18.20;33.00;;;;;;5028073;28;20458;-71
2021/07/14 07:40:38;;;;;;;4.90;2.87;;;18.20;32.10;;;;;;5026946;28;20327;-70
2021/07/14 07:43:03;;;;;;;5.70;2.83;;;18.20;32.90;;;;;;5012852;28;20330;-70
2021/07/14 07:45:29;;;;;;;3.47;2.63;;;18.60;32.30;;;;;;5028152;28;20254;-71
2021/07/14 07:47:55;;;;;;;2.77;2.50;;;18.80;31.10;;;;;;5012872;28;20258;-70
2021/07/14 07:50:20;;;;;;;4.80;3.30;;;18.90;30.50;;;;;;5012504;28;20237;-71
2021/07/14 07:52:46;;;;;;;6.30;3.67;;;18.90;29.90;;;;;;5028024;28;20216;-72
2021/07/14 07:55:14;;;;;;;3.40;2.70;;;19.00;30.00;;;;;;5027773;28;20180;-71
2021/07/14 07:57:41;;;;;;;3.90;3.40;;;19.00;30.00;;;;;;5012571;28;20188;-70
2021/07/14 08:00:12;;;;;;;3.10;2.73;;;19.00;30.00;;;;;;5012330;28;20447;-70
2021/07/14 08:02:38;;;;;;;5.20;3.13;;;18.80;32.90;;;;;;5012487;28;20442;-70
2021/07/14 08:05:04;;;;;;;4.13;3.53;;;;;;;;;;5012549;28;20422;-70
2021/07/14 08:07:30;;;;;;;3.20;2.90;;;18.60;48.30;;;;;;5027541;28;20419;-70
2021/07/14 08:09:56;;;;;;;3.23;2.60;;;18.50;33.30;;;;;;5027260;28;20470;-70
2021/07/14 08:12:22;;;;;;;4.70;2.67;;;18.60;30.90;;;;;;5012646;28;20227;-70
2021/07/14 08:14:47;;;;;;;4.23;3.20;;;18.50;38.50;;;;;;5027805;28;20176;-71
2021/07/14 08:17:13;;;;;;;3.40;2.87;;;18.60;38.60;;;;;;5012464;28;20418;-70
2021/07/14 08:19:38;;;;;;;7.37;2.63;;;18.70;38.70;;;;;;5012066;28;20590;-70
2021/07/14 08:22:04;;;;;;;3.97;2.57;;;18.70;38.70;;;;;;5012194;28;20295;-70
2021/07/14 08:24:29;;;;;;;3.40;2.40;;;18.80;40.40;;;;;;5012353;28;20437;-70
2021/07/14 08:26:55;;;;;;;3.47;3.17;;;18.90;42.50;;;;;;5012260;28;20187;-70
2021/07/14 08:29:21;;;;;;;2.90;2.57;;;19.00;38.30;;;;;;5011905;28;20214;-70
2021/07/14 08:31:51;;;;;;;4.30;2.33;;;19.00;37.40;;;;;;5027120;28;20295;-70
2021/07/14 08:34:18;;;;;;;4.70;2.90;;;18.90;28.60;;;;;;5012085;28;20172;-71
2021/07/14 08:36:43;;;;;;;2.90;2.60;;;18.70;28.60;;;;;;5027125;28;20423;-70
2021/07/14 08:39:09;;;;;;;2.20;2.00;;;18.40;29.50;;;;;;5011697;28;20435;-70
2021/07/14 08:41:38;;;;;;;5.53;2.37;;;18.30;30.20;;;;;;5027066;28;20204;-70
2021/07/14 08:44:06;;;;;;;2.50;2.20;;;18.20;29.80;;;;;;5011909;28;20172;-71
2021/07/14 08:46:32;;;;;;;3.50;2.30;;;18.20;30.80;;;;;;5027232;28;20430;-70
2021/07/14 08:49:00;;;;;;;4.13;2.93;;;18.20;30.10;;;;;;5011555;28;20470;-70
2021/07/14 08:51:25;;;;;;;3.33;2.60;;;18.20;29.10;;;;;;5011945;28;20462;-70
2021/07/14 08:53:51;;;;;;;4.60;3.20;;;18.20;29.10;;;;;;5028010;28;20426;-71
2021/07/14 08:56:17;;;;;;;2.40;2.20;;;18.10;29.30;;;;;;5013093;28;20642;-70
2021/07/14 08:58:43;;;;;;;2.50;2.30;;;18.10;29.50;;;;;;5011708;28;20248;-70
2021/07/14 09:01:08;;;;;;;3.20;2.77;;;18.30;30.00;;;;;;5011448;28;20207;-69
2021/07/14 09:03:34;;;;;;;3.73;2.67;;;18.40;29.40;;;;;;5011721;28;20414;-71
2021/07/14 09:06:00;;;;;;;9.20;2.70;;;18.40;29.70;;;;;;5011590;28;20187;-70
2021/07/14 09:08:25;;;;;;;5.00;2.87;;;18.50;29.10;;;;;;5011771;28;20172;-70
2021/07/14 09:10:51;;;;;;;4.00;2.20;;;18.40;28.80;;;;;;5026859;28;20212;-71
2021/07/14 09:13:17;;;;;;;2.67;2.40;;;18.30;29.50;;;;;;5011946;28;20179;-70
2021/07/14 09:15:51;;;;;;;4.47;2.47;;;18.40;29.40;;;;;;5011805;28;20254;-70
2021/07/14 09:18:22;;;;;;;3.27;2.97;;;18.30;29.80;;;;;;5012260;28;20437;-70
2021/07/14 09:20:48;;;;;;;3.50;3.20;;;18.40;30.20;;;;;;5026883;28;20427;-71
2021/07/14 09:23:17;;;;;;;3.10;2.80;;;18.70;30.60;;;;;;5011378;28;20996;-70
2021/07/14 09:25:54;;;;;;;3.10;2.80;;;19.00;29.10;;;;;;5011310;28;20421;-71
2021/07/14 09:28:22;;;;;;;3.70;2.50;;;19.30;28.10;;;;;;5011834;28;20788;-71
2021/07/14 09:31:00;;;;;;;2.60;2.40;;;19.50;28.10;;;;;;5012578;28;20841;-72
2021/07/14 09:33:27;;;;;;;3.90;3.57;;;19.80;27.80;;;;;;5012792;28;20398;-71
2021/07/14 09:35:54;;;;;;;2.80;2.40;;;20.00;27.20;;;;;;5012685;28;20916;-72
2021/07/14 09:38:22;;;;;;;3.70;3.20;;;20.20;26.70;;;;;;5013370;28;20430;-71
2021/07/14 09:40:51;;;;;;;4.43;3.67;;;20.30;26.00;;;;;;5026575;28;20948;-71
2021/07/14 09:43:23;;;;;;;5.23;2.80;;;20.30;26.80;;;;;;5026553;28;20785;-70
2021/07/14 09:46:12;;;;;;;4.73;3.97;;;20.40;26.40;;;;;;5011418;28;20514;-71
2021/07/14 09:48:40;;;;;;;3.23;2.93;;;20.40;25.50;;;;;;5011495;28;20407;-71
2021/07/14 09:51:16;;;;;;;3.93;3.57;;;20.50;25.60;;;;;;5011503;28;20504;-71
2021/07/14 09:53:44;;;;;;;3.23;2.93;;;20.50;27.30;;;;;;5011720;28;20438;-72
2021/07/14 09:56:14;;;;;;;4.00;3.33;;;20.60;28.30;;;;;;5011819;28;20814;-71
2021/07/14 09:58:40;;;;;;;4.20;3.87;;;20.60;28.80;;;;;;5011445;28;20457;-70
2021/07/14 10:01:10;;;;;;;6.07;3.83;;;20.60;29.10;;;;;;5011280;28;20441;-70
2021/07/14 10:03:38;;;;;;;3.63;3.33;;;20.80;28.70;;;;;;5028845;28;20800;-71
2021/07/14 10:06:12;;;;;;;3.97;3.63;;;21.00;27.80;;;;;;5015143;28;20430;-71
2021/07/14 10:08:48;;;;;;;3.83;3.53;;;21.10;28.10;;;;;;5015136;28;20414;-72
2021/07/14 10:11:22;;;;;;;4.30;4.00;;;21.20;27.40;;;;;;5015161;28;20443;-71
2021/07/14 10:13:53;;;;;;;3.83;3.50;;;21.30;28.60;;;;;;5015171;28;20405;-71
2021/07/14 10:16:20;;;;;;;4.77;4.33;;;21.60;37.10;;;;;;5015073;28;20411;-72
2021/07/14 10:18:54;;;;;;;6.10;3.60;;;21.50;36.60;;;;;;5014893;28;20545;-71
2021/07/14 10:21:20;;;;;;;4.17;3.80;;;21.70;36.10;;;;;;5015042;28;20488;-71
2021/07/14 10:23:46;;;;;;;4.60;4.30;;;21.90;36.10;;;;;;5015256;28;20908;-71
2021/07/14 10:26:11;;;;;;;7.40;4.30;;;21.90;35.60;;;;;;5014915;28;20539;-71
2021/07/14 10:28:37;;;;;;;4.20;3.90;;;22.00;35.90;;;;;;5014954;28;20765;-71
2021/07/14 10:31:03;;;;;;;4.63;4.33;;;22.10;30.40;;;;;;5014537;28;20567;-71
2021/07/14 10:33:32;;;;;;;14.63;4.77;;;22.20;26.80;;;;;;5014714;28;20795;-71
2021/07/14 10:36:01;;;;;;;5.80;4.73;;;22.30;26.10;;;;;;5014733;28;20226;-71
2021/07/14 10:38:28;;;;;;;4.53;4.23;;;22.50;26.90;;;;;;5014805;28;20410;-71
2021/07/14 10:40:56;;;;;;;4.83;4.53;;;22.70;26.40;;;;;;5029704;28;20477;-72
2021/07/14 10:43:25;;;;;;;4.70;4.40;;;23.10;27.20;;;;;;5014838;28;20828;-71
2021/07/14 10:45:52;;;;;;;5.77;5.37;;;23.30;22.50;;;;;;5014538;28;20503;-71
2021/07/14 10:48:21;;;;;;;5.40;5.10;;;23.40;21.50;;;;;;5014877;28;20422;-72
2021/07/14 10:50:47;;;;;;;5.40;5.10;;;23.50;19.90;;;;;;5014903;28;20465;-72
2021/07/14 10:53:14;;;;;;;5.37;5.07;;;23.90;20.00;;;;;;5015755;28;20419;-71
2021/07/14 10:55:41;;;;;;;6.17;5.57;;;24.20;20.30;;;;;;5014433;28;20414;-72
2021/07/14 10:58:11;;;;;;;6.00;5.60;;;24.50;18.50;;;;;;5014490;28;20410;-72
2021/07/14 11:00:38;;;;;;;5.80;5.43;;;24.80;18.30;;;;;;5014013;28;20415;-72
2021/07/14 11:03:04;;;;;;;5.57;5.27;;;24.70;17.90;;;;;;5014408;28;20418;-73
2021/07/14 11:05:50;;;;;;;6.50;6.00;;;24.90;18.10;;;;;;5014355;28;20403;-72
2021/07/14 11:08:41;;;;;;;6.20;5.87;;;25.30;17.00;;;;;;5013979;28;20200;-72
2021/07/14 11:11:07;;;;;;;6.80;6.50;;;25.30;16.50;;;;;;5013844;28;20895;-72
2021/07/14 11:13:35;;;;;;;6.67;6.30;;;25.10;16.30;;;;;;5013631;28;20514;-73
2021/07/14 11:16:37;;;;;;;6.67;6.37;;;25.00;16.00;;;;;;5013602;28;20406;-71
2021/07/14 11:19:13;;;;;;;6.60;6.30;;;25.00;21.40;;;;;;4952681;28;20417;-70
2021/07/14 11:21:49;;;;;;;6.90;6.60;;;25.10;21.40;;;;;;5019065;28;20442;-70
2021/07/14 11:24:37;;;;;;;7.67;7.27;;;25.20;15.10;;;;;;5029299;28;20482;-71
2021/07/14 11:27:18;;;;;;;7.80;7.40;;;25.20;16.00;;;;;;5014477;28;20812;-71
2021/07/14 11:29:45;;;;;;;7.30;7.00;;;24.90;17.20;;;;;;5028752;28;20451;-71
2021/07/14 11:32:11;;;;;;;8.43;7.90;;;24.70;24.20;;;;;;5013929;28;20431;-70
2021/07/14 11:34:37;;;;;;;8.47;7.97;;;24.70;22.70;;;;;;5013947;28;20461;-72
2021/07/14 11:37:31;;;;;;;8.10;7.70;;;24.80;21.20;;;;;;5014666;28;20415;-71
2021/07/14 11:40:19;;;;;;;8.17;7.80;;;24.90;28.40;;;;;;5013501;28;20497;-72
2021/07/14 11:43:00;;;;;;;8.13;7.83;;;25.00;27.50;;;;;;5013256;28;20439;-72
2021/07/14 11:45:26;;;;;;;7.60;7.23;;;24.90;26.70;;;;;;5028878;28;20429;-71
2021/07/14 11:48:05;;;;;;;8.63;8.23;;;25.00;27.90;;;;;;5013510;28;20407;-71
2021/07/14 11:50:46;;;;;;;8.93;8.40;;;25.00;28.20;;;;;;5028314;28;20254;-70
2021/07/14 11:53:35;;;;;;;7.83;7.53;;;24.90;27.80;;;;;;5013506;28;20414;-71
2021/07/14 11:56:29;;;;;;;8.10;7.80;;;24.80;28.50;;;;;;5013167;28;20505;-71
2021/07/14 11:59:10;;;;;;;8.67;8.27;;;25.00;27.50;;;;;;5012520;28;20407;-71
2021/07/14 12:01:35;;;;;;;8.80;8.40;;;25.30;28.50;;;;;;5027793;28;20431;-70
2021/07/14 12:04:01;;;;;;;9.70;9.20;;;25.40;29.30;;;;;;5012726;28;20419;-70
2021/07/14 12:06:50;;;;;;;9.00;8.60;;;25.60;28.10;;;;;;5012376;28;20255;-70
2021/07/14 12:09:16;;;;;;;9.20;8.80;;;25.50;30.90;;;;;;5011950;28;20202;-70
2021/07/14 12:12:00;;;;;;;8.70;8.40;;;25.50;29.90;;;;;;5012105;28;20513;-70
2021/07/14 12:14:26;;;;;;;9.53;9.03;;;;;;;;;;5012155;28;20465;-70
2021/07/14 12:16:54;;;;;;;8.77;8.47;;;25.60;34.60;;;;;;5012178;28;20402;-70
2021/07/14 12:19:21;;;;;;;9.70;9.20;;;;;;;;;;5011976;28;20913;-70
2021/07/14 12:21:47;;;;;;;9.73;9.33;;;25.30;15.20;;;;;;5012091;28;20431;-70
2021/07/14 12:24:31;;;;;;;9.40;9.00;;;25.30;15.70;;;;;;5027334;28;20454;-70
2021/07/14 12:27:01;;;;;;;9.87;9.47;;;25.50;17.10;;;;;;5011794;28;20498;-70
2021/07/14 12:29:27;;;;;;;9.50;9.10;;;25.50;15.50;;;;;;5011732;28;20454;-70
2021/07/14 12:31:53;;;;;;;9.47;9.07;;;25.30;18.10;;;;;;5011939;28;20430;-70
2021/07/14 12:34:26;;;;;;;9.60;9.00;;;25.10;19.10;;;;;;5027142;28;20419;-70
2021/07/14 12:36:51;;;;;;;9.67;9.17;;;25.00;20.00;;;;;;5012215;28;20176;-70
2021/07/14 12:39:22;;;;;;;9.60;9.20;;;24.90;19.90;;;;;;5026829;28;20956;-70
2021/07/14 12:41:56;;;;;;;9.33;8.93;;;24.90;19.20;;;;;;5011839;28;20230;-70
2021/07/14 12:44:23;;;;;;;9.63;9.23;;;25.00;20.00;;;;;;5011814;28;20531;-70
2021/07/14 12:46:49;;;;;;;9.93;9.53;;;24.80;18.40;;;;;;5011801;28;20425;-70
2021/07/14 12:49:20;;;;;;;9.07;8.77;;;24.60;33.30;;;;;;5011465;28;20545;-70
2021/07/14 12:52:07;;;;;;;9.50;9.10;;;24.60;34.60;;;;;;5011724;28;20442;-70
2021/07/14 12:54:37;;;;;;;9.90;9.50;;;24.40;34.80;;;;;;5011761;28;20644;-70
2021/07/14 12:57:19;;;;;;;9.40;9.00;;;24.40;34.60;;;;;;5026858;28;20406;-71
2021/07/14 12:59:49;;;;;;;10.10;9.50;;;24.30;35.10;;;;;;5011432;28;20834;-71
2021/07/14 13:02:17;;;;;;;8.73;8.33;;;24.20;35.20;;;;;;5011509;28;20430;-71
2021/07/14 13:04:43;;;;;;;9.30;8.90;;;24.20;35.60;;;;;;5013566;28;20418;-72
2021/07/14 13:07:09;;;;;;;9.07;8.63;;;24.40;35.00;;;;;;5015875;28;20473;-72
2021/07/14 13:09:34;;;;;;;9.87;8.90;;;24.60;29.40;;;;;;5015247;28;20459;-72
2021/07/14 13:12:02;;;;;;;10.20;9.70;;;24.90;26.90;;;;;;5015804;28;20187;-71
2021/07/14 13:14:27;;;;;;;9.40;9.00;;;25.00;25.70;;;;;;5015257;28;20184;-71
2021/07/14 13:16:53;;;;;;;9.93;9.20;;;25.10;25.40;;;;;;5015613;28;20419;-72
2021/07/14 13:19:19;;;;;;;10.57;10.17;;;25.20;24.50;;;;;;5015216;28;20226;-71
2021/07/14 13:21:46;;;;;;;10.83;10.33;;;25.20;25.00;;;;;;5015433;28;20560;-72
2021/07/14 13:24:12;;;;;;;10.40;9.90;;;25.00;23.10;;;;;;5014974;28;20172;-72
2021/07/14 13:26:38;;;;;;;12.17;11.47;;;24.80;26.80;;;;;;5015056;28;20598;-72